sensor_id;sensor_type;location;lat;lon;timestamp;P1;durP1;ratioP1;P2;durP2;ratioP2
57856;SDS011;43683;48.650;9.290;2023-04-12T00:00:58;4.28;;;2.40;;
57856;SDS011;43683;48.650;9.290;2023-04-12T00:03:24;6.13;;;2.58;;
57856;SDS011;43683;48.650;9.290;2023-04-12T00:05:51;5.03;;;2.50;;
57856;SDS011;43683;48.650;9.290;2023-04-12T00:08:19;4.15;;;2.58;;
57856;SDS011;43683;48.650;9.290;2023-04-12T00:10:50;4.72;;;2.30;;
57856;SDS011;43683;48.650;9.290;2023-04-12T00:13:16;6.20;;;2.55;;
57856;SDS011;43683;48.650;9.290;2023-04-12T00:15:41;7.38;;;2.70;;
57856;SDS011;43683;48.650;9.290;2023-04-12T00:18:07;6.50;;;2.78;;
57856;SDS011;43683;48.650;9.290;2023-04-12T00:20:32;3.22;;;2.30;;
57856;SDS011;43683;48.650;9.290;2023-04-12T00:22:58;4.65;;;2.40;;
57856;SDS011;43683;48.650;9.290;2023-04-12T00:25:23;3.90;;;2.28;;
57856;SDS011;43683;48.650;9.290;2023-04-12T00:27:49;3.30;;;2.10;;
57856;SDS011;43683;48.650;9.290;2023-04-12T00:30:14;5.82;;;2.58;;
57856;SDS011;43683;48.650;9.290;2023-04-12T00:32:41;4.85;;;2.40;;
57856;SDS011;43683;48.650;9.290;2023-04-12T00:35:07;4.22;;;2.15;;
57856;SDS011;43683;48.650;9.290;2023-04-12T00:37:32;4.60;;;2.10;;
57856;SDS011;43683;48.650;9.290;2023-04-12T00:40:00;4.28;;;2.20;;
57856;SDS011;43683;48.650;9.290;2023-04-12T00:42:26;3.22;;;1.90;;
57856;SDS011;43683;48.650;9.290;2023-04-12T00:44:51;6.35;;;2.10;;
57856;SDS011;43683;48.650;9.290;2023-04-12T00:47:17;3.17;;;2.03;;
57856;SDS011;43683;48.650;9.290;2023-04-12T00:49:43;3.05;;;1.85;;
57856;SDS011;43683;48.650;9.290;2023-04-12T00:52:09;4.93;;;2.33;;
57856;SDS011;43683;48.650;9.290;2023-04-12T00:54:39;5.38;;;2.28;;
57856;SDS011;43683;48.650;9.290;2023-04-12T00:57:06;3.42;;;2.10;;
57856;SDS011;43683;48.650;9.290;2023-04-12T00:59:32;4.75;;;3.00;;
57856;SDS011;43683;48.650;9.290;2023-04-12T01:01:58;3.65;;;2.13;;
57856;SDS011;43683;48.650;9.290;2023-04-12T01:04:24;2.83;;;2.03;;
57856;SDS011;43683;48.650;9.290;2023-04-12T01:07:01;3.05;;;2.15;;
57856;SDS011;43683;48.650;9.290;2023-04-12T01:09:58;3.00;;;2.08;;
57856;SDS011;43683;48.650;9.290;2023-04-12T01:12:35;4.72;;;2.10;;
57856;SDS011;43683;48.650;9.290;2023-04-12T01:15:11;4.32;;;2.30;;
57856;SDS011;43683;48.650;9.290;2023-04-12T01:20:34;5.70;;;2.60;;
57856;SDS011;43683;48.650;9.290;2023-04-12T01:25:49;7.30;;;2.58;;
57856;SDS011;43683;48.650;9.290;2023-04-12T01:28:22;3.75;;;2.03;;
57856;SDS011;43683;48.650;9.290;2023-04-12T01:30:53;2.72;;;2.22;;
57856;SDS011;43683;48.650;9.290;2023-04-12T01:33:18;4.70;;;2.10;;
57856;SDS011;43683;48.650;9.290;2023-04-12T01:35:45;4.03;;;2.45;;
57856;SDS011;43683;48.650;9.290;2023-04-12T01:38:13;6.90;;;2.55;;
57856;SDS011;43683;48.650;9.290;2023-04-12T01:40:39;4.03;;;2.10;;
57856;SDS011;43683;48.650;9.290;2023-04-12T01:43:10;4.03;;;2.50;;
57856;SDS011;43683;48.650;9.290;2023-04-12T01:45:37;3.65;;;2.00;;
57856;SDS011;43683;48.650;9.290;2023-04-12T01:48:06;4.85;;;2.15;;
57856;SDS011;43683;48.650;9.290;2023-04-12T01:53:42;4.30;;;1.85;;
57856;SDS011;43683;48.650;9.290;2023-04-12T01:56:14;3.13;;;2.10;;
57856;SDS011;43683;48.650;9.290;2023-04-12T01:58:41;6.22;;;2.10;;
57856;SDS011;43683;48.650;9.290;2023-04-12T02:01:08;2.25;;;1.92;;
57856;SDS011;43683;48.650;9.290;2023-04-12T02:03:36;3.80;;;2.00;;
57856;SDS011;43683;48.650;9.290;2023-04-12T02:06:06;6.72;;;2.00;;
57856;SDS011;43683;48.650;9.290;2023-04-12T02:08:33;4.32;;;2.30;;
57856;SDS011;43683;48.650;9.290;2023-04-12T02:10:58;3.08;;;1.90;;
57856;SDS011;43683;48.650;9.290;2023-04-12T02:13:24;3.47;;;2.00;;
57856;SDS011;43683;48.650;9.290;2023-04-12T02:15:50;4.32;;;2.38;;
57856;SDS011;43683;48.650;9.290;2023-04-12T02:18:19;3.58;;;2.30;;
57856;SDS011;43683;48.650;9.290;2023-04-12T02:20:44;3.35;;;1.90;;
57856;SDS011;43683;48.650;9.290;2023-04-12T02:23:10;4.55;;;2.33;;
57856;SDS011;43683;48.650;9.290;2023-04-12T02:25:36;3.90;;;1.83;;
57856;SDS011;43683;48.650;9.290;2023-04-12T02:28:03;3.60;;;1.98;;
57856;SDS011;43683;48.650;9.290;2023-04-12T02:30:30;5.25;;;2.13;;
57856;SDS011;43683;48.650;9.290;2023-04-12T02:32:56;3.40;;;1.80;;
57856;SDS011;43683;48.650;9.290;2023-04-12T02:35:22;3.80;;;1.98;;
57856;SDS011;43683;48.650;9.290;2023-04-12T02:37:48;3.13;;;1.85;;
57856;SDS011;43683;48.650;9.290;2023-04-12T02:40:15;3.15;;;2.00;;
57856;SDS011;43683;48.650;9.290;2023-04-12T02:42:41;3.70;;;1.80;;
57856;SDS011;43683;48.650;9.290;2023-04-12T02:45:07;6.30;;;2.25;;
57856;SDS011;43683;48.650;9.290;2023-04-12T02:47:34;5.13;;;2.47;;
57856;SDS011;43683;48.650;9.290;2023-04-12T02:49:59;6.68;;;2.10;;
57856;SDS011;43683;48.650;9.290;2023-04-12T02:52:25;4.05;;;1.98;;
57856;SDS011;43683;48.650;9.290;2023-04-12T02:54:53;3.38;;;2.50;;
57856;SDS011;43683;48.650;9.290;2023-04-12T02:57:18;4.05;;;2.17;;
57856;SDS011;43683;48.650;9.290;2023-04-12T02:59:45;5.55;;;2.00;;
57856;SDS011;43683;48.650;9.290;2023-04-12T03:02:12;3.50;;;2.10;;
57856;SDS011;43683;48.650;9.290;2023-04-12T03:04:38;2.35;;;2.15;;
57856;SDS011;43683;48.650;9.290;2023-04-12T03:07:04;4.15;;;2.03;;
57856;SDS011;43683;48.650;9.290;2023-04-12T03:09:30;4.40;;;2.00;;
57856;SDS011;43683;48.650;9.290;2023-04-12T03:11:56;3.85;;;2.63;;
57856;SDS011;43683;48.650;9.290;2023-04-12T03:14:22;5.47;;;2.30;;
57856;SDS011;43683;48.650;9.290;2023-04-12T03:16:47;4.95;;;2.58;;
57856;SDS011;43683;48.650;9.290;2023-04-12T03:19:15;3.13;;;2.40;;
57856;SDS011;43683;48.650;9.290;2023-04-12T03:21:40;4.68;;;2.55;;
57856;SDS011;43683;48.650;9.290;2023-04-12T03:24:06;3.50;;;2.13;;
57856;SDS011;43683;48.650;9.290;2023-04-12T03:26:32;3.30;;;2.22;;
57856;SDS011;43683;48.650;9.290;2023-04-12T03:28:59;5.38;;;2.45;;
57856;SDS011;43683;48.650;9.290;2023-04-12T03:31:25;4.10;;;2.53;;
57856;SDS011;43683;48.650;9.290;2023-04-12T03:33:52;4.15;;;2.30;;
57856;SDS011;43683;48.650;9.290;2023-04-12T03:36:18;3.65;;;2.10;;
57856;SDS011;43683;48.650;9.290;2023-04-12T03:38:45;3.45;;;2.10;;
57856;SDS011;43683;48.650;9.290;2023-04-12T03:41:11;3.88;;;2.20;;
57856;SDS011;43683;48.650;9.290;2023-04-12T03:43:36;6.50;;;2.30;;
57856;SDS011;43683;48.650;9.290;2023-04-12T03:46:02;4.82;;;2.28;;
57856;SDS011;43683;48.650;9.290;2023-04-12T03:48:28;6.07;;;2.30;;
57856;SDS011;43683;48.650;9.290;2023-04-12T03:50:54;5.15;;;2.30;;
57856;SDS011;43683;48.650;9.290;2023-04-12T03:53:19;5.55;;;2.35;;
57856;SDS011;43683;48.650;9.290;2023-04-12T03:55:45;3.25;;;2.20;;
57856;SDS011;43683;48.650;9.290;2023-04-12T03:58:11;3.90;;;2.50;;
57856;SDS011;43683;48.650;9.290;2023-04-12T04:00:40;4.20;;;2.20;;
57856;SDS011;43683;48.650;9.290;2023-04-12T04:03:07;4.93;;;2.30;;
57856;SDS011;43683;48.650;9.290;2023-04-12T04:05:33;3.90;;;2.00;;
57856;SDS011;43683;48.650;9.290;2023-04-12T04:07:58;3.58;;;2.20;;
57856;SDS011;43683;48.650;9.290;2023-04-12T04:10:26;3.42;;;2.20;;
57856;SDS011;43683;48.650;9.290;2023-04-12T04:12:52;3.47;;;2.28;;
57856;SDS011;43683;48.650;9.290;2023-04-12T04:15:18;5.35;;;2.08;;
57856;SDS011;43683;48.650;9.290;2023-04-12T04:17:44;2.33;;;2.10;;
57856;SDS011;43683;48.650;9.290;2023-04-12T04:20:11;4.13;;;2.25;;
57856;SDS011;43683;48.650;9.290;2023-04-12T04:22:37;5.35;;;2.30;;
57856;SDS011;43683;48.650;9.290;2023-04-12T04:25:03;5.18;;;2.35;;
57856;SDS011;43683;48.650;9.290;2023-04-12T04:27:30;5.43;;;2.13;;
57856;SDS011;43683;48.650;9.290;2023-04-12T04:29:58;3.42;;;2.40;;
57856;SDS011;43683;48.650;9.290;2023-04-12T04:32:26;3.58;;;2.72;;
57856;SDS011;43683;48.650;9.290;2023-04-12T04:34:54;6.68;;;2.88;;
57856;SDS011;43683;48.650;9.290;2023-04-12T04:37:20;7.75;;;3.85;;
57856;SDS011;43683;48.650;9.290;2023-04-12T04:39:46;6.57;;;3.35;;
57856;SDS011;43683;48.650;9.290;2023-04-12T04:42:11;4.38;;;2.83;;
57856;SDS011;43683;48.650;9.290;2023-04-12T04:44:37;3.60;;;2.13;;
57856;SDS011;43683;48.650;9.290;2023-04-12T04:47:03;3.17;;;2.33;;
57856;SDS011;43683;48.650;9.290;2023-04-12T04:49:28;5.30;;;2.30;;
57856;SDS011;43683;48.650;9.290;2023-04-12T04:51:54;3.88;;;2.10;;
57856;SDS011;43683;48.650;9.290;2023-04-12T04:54:20;2.30;;;2.00;;
57856;SDS011;43683;48.650;9.290;2023-04-12T04:56:46;4.60;;;2.20;;
57856;SDS011;43683;48.650;9.290;2023-04-12T04:59:11;2.17;;;1.98;;
57856;SDS011;43683;48.650;9.290;2023-04-12T05:01:37;4.32;;;2.30;;
57856;SDS011;43683;48.650;9.290;2023-04-12T05:04:03;2.30;;;1.88;;
57856;SDS011;43683;48.650;9.290;2023-04-12T05:06:28;2.88;;;1.95;;
57856;SDS011;43683;48.650;9.290;2023-04-12T05:08:54;4.43;;;2.42;;
57856;SDS011;43683;48.650;9.290;2023-04-12T05:11:20;4.70;;;2.67;;
57856;SDS011;43683;48.650;9.290;2023-04-12T05:13:46;3.00;;;2.15;;
57856;SDS011;43683;48.650;9.290;2023-04-12T05:16:11;2.90;;;2.00;;
57856;SDS011;43683;48.650;9.290;2023-04-12T05:18:37;3.75;;;2.10;;
57856;SDS011;43683;48.650;9.290;2023-04-12T05:21:03;2.58;;;2.38;;
57856;SDS011;43683;48.650;9.290;2023-04-12T05:23:31;3.53;;;2.40;;
57856;SDS011;43683;48.650;9.290;2023-04-12T05:25:59;3.88;;;2.10;;
57856;SDS011;43683;48.650;9.290;2023-04-12T05:28:24;3.97;;;2.38;;
57856;SDS011;43683;48.650;9.290;2023-04-12T05:30:50;3.05;;;2.17;;
57856;SDS011;43683;48.650;9.290;2023-04-12T05:33:15;3.65;;;2.13;;
57856;SDS011;43683;48.650;9.290;2023-04-12T05:35:41;4.53;;;2.10;;
57856;SDS011;43683;48.650;9.290;2023-04-12T05:38:06;3.00;;;2.03;;
57856;SDS011;43683;48.650;9.290;2023-04-12T05:40:32;2.47;;;1.90;;
57856;SDS011;43683;48.650;9.290;2023-04-12T05:42:58;4.38;;;2.03;;
57856;SDS011;43683;48.650;9.290;2023-04-12T05:45:24;4.63;;;1.95;;
57856;SDS011;43683;48.650;9.290;2023-04-12T05:47:49;2.88;;;2.15;;
57856;SDS011;43683;48.650;9.290;2023-04-12T05:50:15;2.83;;;1.95;;
57856;SDS011;43683;48.650;9.290;2023-04-12T05:52:40;2.13;;;1.70;;
57856;SDS011;43683;48.650;9.290;2023-04-12T05:55:06;3.30;;;2.05;;
57856;SDS011;43683;48.650;9.290;2023-04-12T05:57:32;2.83;;;2.17;;
57856;SDS011;43683;48.650;9.290;2023-04-12T05:59:57;2.20;;;1.77;;
57856;SDS011;43683;48.650;9.290;2023-04-12T06:02:23;2.42;;;1.88;;
57856;SDS011;43683;48.650;9.290;2023-04-12T06:04:50;4.90;;;2.13;;
57856;SDS011;43683;48.650;9.290;2023-04-12T06:07:16;3.75;;;1.83;;
57856;SDS011;43683;48.650;9.290;2023-04-12T06:09:43;3.53;;;2.00;;
57856;SDS011;43683;48.650;9.290;2023-04-12T06:12:08;4.30;;;1.90;;
57856;SDS011;43683;48.650;9.290;2023-04-12T06:14:34;4.45;;;2.08;;
57856;SDS011;43683;48.650;9.290;2023-04-12T06:17:00;3.55;;;2.13;;
57856;SDS011;43683;48.650;9.290;2023-04-12T06:19:25;3.22;;;2.17;;
57856;SDS011;43683;48.650;9.290;2023-04-12T06:21:51;2.25;;;2.03;;
57856;SDS011;43683;48.650;9.290;2023-04-12T06:24:16;2.83;;;2.00;;
57856;SDS011;43683;48.650;9.290;2023-04-12T06:26:42;1.98;;;1.75;;
57856;SDS011;43683;48.650;9.290;2023-04-12T06:29:10;4.40;;;1.88;;
57856;SDS011;43683;48.650;9.290;2023-04-12T06:31:36;2.15;;;1.83;;
57856;SDS011;43683;48.650;9.290;2023-04-12T06:34:01;2.75;;;1.70;;
57856;SDS011;43683;48.650;9.290;2023-04-12T06:36:27;3.63;;;1.98;;
57856;SDS011;43683;48.650;9.290;2023-04-12T06:38:52;2.25;;;1.73;;
57856;SDS011;43683;48.650;9.290;2023-04-12T06:41:19;2.90;;;1.83;;
57856;SDS011;43683;48.650;9.290;2023-04-12T06:43:45;4.43;;;1.90;;
57856;SDS011;43683;48.650;9.290;2023-04-12T06:46:11;2.22;;;1.88;;
57856;SDS011;43683;48.650;9.290;2023-04-12T06:48:39;3.85;;;2.10;;
57856;SDS011;43683;48.650;9.290;2023-04-12T06:51:05;2.25;;;2.00;;
57856;SDS011;43683;48.650;9.290;2023-04-12T06:53:31;3.33;;;2.05;;
57856;SDS011;43683;48.650;9.290;2023-04-12T06:56:02;3.72;;;2.42;;
57856;SDS011;43683;48.650;9.290;2023-04-12T06:58:28;3.38;;;1.80;;
57856;SDS011;43683;48.650;9.290;2023-04-12T07:01:02;3.42;;;1.98;;
57856;SDS011;43683;48.650;9.290;2023-04-12T07:03:29;2.28;;;1.80;;
57856;SDS011;43683;48.650;9.290;2023-04-12T07:05:57;3.95;;;1.70;;
57856;SDS011;43683;48.650;9.290;2023-04-12T07:08:24;2.43;;;1.60;;
57856;SDS011;43683;48.650;9.290;2023-04-12T07:10:55;2.67;;;1.40;;
57856;SDS011;43683;48.650;9.290;2023-04-12T07:13:21;1.40;;;1.30;;
57856;SDS011;43683;48.650;9.290;2023-04-12T07:15:50;2.05;;;1.30;;
57856;SDS011;43683;48.650;9.290;2023-04-12T07:18:16;2.58;;;1.17;;
57856;SDS011;43683;48.650;9.290;2023-04-12T07:20:42;2.45;;;1.60;;
57856;SDS011;43683;48.650;9.290;2023-04-12T07:23:08;3.25;;;1.27;;
57856;SDS011;43683;48.650;9.290;2023-04-12T07:25:36;2.05;;;1.17;;
57856;SDS011;43683;48.650;9.290;2023-04-12T07:28:02;1.85;;;1.20;;
57856;SDS011;43683;48.650;9.290;2023-04-12T07:30:28;1.80;;;1.50;;
57856;SDS011;43683;48.650;9.290;2023-04-12T07:32:54;1.30;;;1.20;;
57856;SDS011;43683;48.650;9.290;2023-04-12T07:35:19;1.40;;;1.25;;
57856;SDS011;43683;48.650;9.290;2023-04-12T07:37:45;1.80;;;1.20;;
57856;SDS011;43683;48.650;9.290;2023-04-12T07:40:11;1.42;;;1.33;;
57856;SDS011;43683;48.650;9.290;2023-04-12T07:42:37;2.80;;;1.38;;
57856;SDS011;43683;48.650;9.290;2023-04-12T07:45:02;1.58;;;1.08;;
57856;SDS011;43683;48.650;9.290;2023-04-12T07:47:28;1.40;;;1.17;;
57856;SDS011;43683;48.650;9.290;2023-04-12T07:49:54;2.55;;;1.10;;
57856;SDS011;43683;48.650;9.290;2023-04-12T07:52:21;2.55;;;1.83;;
57856;SDS011;43683;48.650;9.290;2023-04-12T07:54:46;1.33;;;1.20;;
57856;SDS011;43683;48.650;9.290;2023-04-12T07:57:12;2.13;;;1.38;;
57856;SDS011;43683;48.650;9.290;2023-04-12T07:59:38;1.40;;;1.30;;
57856;SDS011;43683;48.650;9.290;2023-04-12T08:02:03;1.55;;;1.15;;
57856;SDS011;43683;48.650;9.290;2023-04-12T08:04:30;2.50;;;1.30;;
57856;SDS011;43683;48.650;9.290;2023-04-12T08:06:55;2.70;;;1.27;;
57856;SDS011;43683;48.650;9.290;2023-04-12T08:09:21;1.30;;;1.20;;
57856;SDS011;43683;48.650;9.290;2023-04-12T08:11:47;2.17;;;1.23;;
57856;SDS011;43683;48.650;9.290;2023-04-12T08:14:13;4.35;;;1.30;;
57856;SDS011;43683;48.650;9.290;2023-04-12T08:16:39;1.50;;;1.40;;
57856;SDS011;43683;48.650;9.290;2023-04-12T08:19:04;2.10;;;1.25;;
57856;SDS011;43683;48.650;9.290;2023-04-12T08:21:30;2.80;;;1.50;;
57856;SDS011;43683;48.650;9.290;2023-04-12T08:23:55;1.63;;;1.48;;
57856;SDS011;43683;48.650;9.290;2023-04-12T08:26:21;2.22;;;1.50;;
57856;SDS011;43683;48.650;9.290;2023-04-12T08:28:47;1.58;;;1.30;;
57856;SDS011;43683;48.650;9.290;2023-04-12T08:31:13;3.33;;;1.40;;
57856;SDS011;43683;48.650;9.290;2023-04-12T08:33:39;2.30;;;1.35;;
57856;SDS011;43683;48.650;9.290;2023-04-12T08:36:05;2.10;;;1.25;;
57856;SDS011;43683;48.650;9.290;2023-04-12T08:38:31;1.47;;;1.20;;
57856;SDS011;43683;48.650;9.290;2023-04-12T08:40:57;1.48;;;1.35;;
57856;SDS011;43683;48.650;9.290;2023-04-12T08:43:23;3.72;;;2.20;;
57856;SDS011;43683;48.650;9.290;2023-04-12T08:45:52;3.17;;;1.58;;
57856;SDS011;43683;48.650;9.290;2023-04-12T08:48:19;1.90;;;1.52;;
57856;SDS011;43683;48.650;9.290;2023-04-12T08:50:46;2.45;;;1.50;;
57856;SDS011;43683;48.650;9.290;2023-04-12T08:53:13;2.53;;;1.25;;
57856;SDS011;43683;48.650;9.290;2023-04-12T08:55:42;1.33;;;1.20;;
57856;SDS011;43683;48.650;9.290;2023-04-12T08:58:12;1.15;;;1.10;;
57856;SDS011;43683;48.650;9.290;2023-04-12T09:00:39;1.92;;;1.23;;
57856;SDS011;43683;48.650;9.290;2023-04-12T09:03:06;2.20;;;1.23;;
57856;SDS011;43683;48.650;9.290;2023-04-12T09:05:31;1.27;;;1.10;;
57856;SDS011;43683;48.650;9.290;2023-04-12T09:07:57;1.55;;;1.30;;
57856;SDS011;43683;48.650;9.290;2023-04-12T09:10:36;3.25;;;1.38;;
57856;SDS011;43683;48.650;9.290;2023-04-12T09:13:05;2.10;;;1.58;;
57856;SDS011;43683;48.650;9.290;2023-04-12T09:15:32;1.13;;;1.05;;
57856;SDS011;43683;48.650;9.290;2023-04-12T09:18:08;2.22;;;1.35;;
57856;SDS011;43683;48.650;9.290;2023-04-12T09:20:35;1.70;;;1.33;;
57856;SDS011;43683;48.650;9.290;2023-04-12T09:23:15;3.42;;;2.05;;
57856;SDS011;43683;48.650;9.290;2023-04-12T09:25:45;1.52;;;1.25;;
57856;SDS011;43683;48.650;9.290;2023-04-12T09:28:21;1.50;;;1.33;;
57856;SDS011;43683;48.650;9.290;2023-04-12T09:30:48;2.15;;;1.20;;
57856;SDS011;43683;48.650;9.290;2023-04-12T09:33:20;2.00;;;1.40;;
57856;SDS011;43683;48.650;9.290;2023-04-12T09:35:48;2.35;;;1.40;;
57856;SDS011;43683;48.650;9.290;2023-04-12T09:38:14;2.60;;;1.40;;
57856;SDS011;43683;48.650;9.290;2023-04-12T09:40:40;2.40;;;1.80;;
57856;SDS011;43683;48.650;9.290;2023-04-12T09:43:09;1.65;;;1.23;;
57856;SDS011;43683;48.650;9.290;2023-04-12T09:45:38;3.17;;;1.50;;
57856;SDS011;43683;48.650;9.290;2023-04-12T09:48:04;2.33;;;1.30;;
57856;SDS011;43683;48.650;9.290;2023-04-12T09:50:30;1.38;;;1.23;;
57856;SDS011;43683;48.650;9.290;2023-04-12T09:52:59;1.92;;;1.40;;
57856;SDS011;43683;48.650;9.290;2023-04-12T09:55:27;2.40;;;1.50;;
57856;SDS011;43683;48.650;9.290;2023-04-12T09:57:55;1.42;;;1.30;;
57856;SDS011;43683;48.650;9.290;2023-04-12T10:00:24;3.45;;;1.52;;
57856;SDS011;43683;48.650;9.290;2023-04-12T10:02:51;2.42;;;1.70;;
57856;SDS011;43683;48.650;9.290;2023-04-12T10:05:21;3.30;;;1.50;;
57856;SDS011;43683;48.650;9.290;2023-04-12T10:07:49;3.47;;;1.98;;
57856;SDS011;43683;48.650;9.290;2023-04-12T10:10:16;1.73;;;1.42;;
57856;SDS011;43683;48.650;9.290;2023-04-12T10:12:43;1.40;;;1.30;;
57856;SDS011;43683;48.650;9.290;2023-04-12T10:15:10;1.58;;;1.17;;
57856;SDS011;43683;48.650;9.290;2023-04-12T10:17:40;4.03;;;1.38;;
57856;SDS011;43683;48.650;9.290;2023-04-12T10:20:11;2.28;;;1.52;;
57856;SDS011;43683;48.650;9.290;2023-04-12T10:22:38;1.60;;;1.42;;
57856;SDS011;43683;48.650;9.290;2023-04-12T10:25:09;2.83;;;1.50;;
57856;SDS011;43683;48.650;9.290;2023-04-12T10:27:36;2.80;;;1.30;;
57856;SDS011;43683;48.650;9.290;2023-04-12T10:30:21;2.60;;;1.35;;
57856;SDS011;43683;48.650;9.290;2023-04-12T10:32:52;1.73;;;1.15;;
57856;SDS011;43683;48.650;9.290;2023-04-12T10:35:53;3.72;;;1.30;;
57856;SDS011;43683;48.650;9.290;2023-04-12T10:38:28;2.25;;;1.23;;
57856;SDS011;43683;48.650;9.290;2023-04-12T10:43:51;2.53;;;1.30;;
57856;SDS011;43683;48.650;9.290;2023-04-12T10:49:10;4.00;;;1.42;;
57856;SDS011;43683;48.650;9.290;2023-04-12T10:51:37;1.10;;;0.90;;
57856;SDS011;43683;48.650;9.290;2023-04-12T10:56:35;1.73;;;1.13;;
57856;SDS011;43683;48.650;9.290;2023-04-12T10:59:03;1.58;;;1.10;;
57856;SDS011;43683;48.650;9.290;2023-04-12T11:01:29;1.40;;;1.10;;
57856;SDS011;43683;48.650;9.290;2023-04-12T11:04:11;2.70;;;1.88;;
57856;SDS011;43683;48.650;9.290;2023-04-12T11:06:55;1.48;;;1.00;;
57856;SDS011;43683;48.650;9.290;2023-04-12T11:14:33;2.47;;;0.93;;
57856;SDS011;43683;48.650;9.290;2023-04-12T11:22:04;1.67;;;0.80;;
57856;SDS011;43683;48.650;9.290;2023-04-12T11:24:31;0.95;;;0.90;;
57856;SDS011;43683;48.650;9.290;2023-04-12T11:26:56;0.98;;;0.90;;
57856;SDS011;43683;48.650;9.290;2023-04-12T11:29:26;1.42;;;1.13;;
57856;SDS011;43683;48.650;9.290;2023-04-12T11:31:52;1.65;;;0.98;;
57856;SDS011;43683;48.650;9.290;2023-04-12T11:34:19;2.33;;;0.90;;
57856;SDS011;43683;48.650;9.290;2023-04-12T11:36:46;2.15;;;0.90;;
57856;SDS011;43683;48.650;9.290;2023-04-12T11:39:14;2.03;;;0.90;;
57856;SDS011;43683;48.650;9.290;2023-04-12T11:41:46;2.35;;;1.05;;
57856;SDS011;43683;48.650;9.290;2023-04-12T11:44:12;1.55;;;0.85;;
57856;SDS011;43683;48.650;9.290;2023-04-12T11:46:40;0.80;;;0.80;;
57856;SDS011;43683;48.650;9.290;2023-04-12T11:49:06;1.40;;;1.17;;
57856;SDS011;43683;48.650;9.290;2023-04-12T11:51:31;0.68;;;0.68;;
57856;SDS011;43683;48.650;9.290;2023-04-12T11:53:57;3.13;;;0.73;;
57856;SDS011;43683;48.650;9.290;2023-04-12T11:56:23;0.93;;;0.80;;
57856;SDS011;43683;48.650;9.290;2023-04-12T11:58:49;1.33;;;0.90;;
57856;SDS011;43683;48.650;9.290;2023-04-12T12:01:15;2.22;;;0.90;;
57856;SDS011;43683;48.650;9.290;2023-04-12T12:03:42;0.90;;;0.77;;
57856;SDS011;43683;48.650;9.290;2023-04-12T12:06:08;0.70;;;0.70;;
57856;SDS011;43683;48.650;9.290;2023-04-12T12:08:35;0.65;;;0.65;;
57856;SDS011;43683;48.650;9.290;2023-04-12T12:11:01;1.80;;;0.80;;
57856;SDS011;43683;48.650;9.290;2023-04-12T12:13:26;0.90;;;0.70;;
57856;SDS011;43683;48.650;9.290;2023-04-12T12:16:14;1.70;;;0.95;;
57856;SDS011;43683;48.650;9.290;2023-04-12T12:18:41;0.85;;;0.85;;
57856;SDS011;43683;48.650;9.290;2023-04-12T12:21:08;2.47;;;1.15;;
57856;SDS011;43683;48.650;9.290;2023-04-12T12:23:34;1.33;;;0.70;;
57856;SDS011;43683;48.650;9.290;2023-04-12T12:26:00;0.70;;;0.70;;
57856;SDS011;43683;48.650;9.290;2023-04-12T12:28:35;0.80;;;0.80;;
57856;SDS011;43683;48.650;9.290;2023-04-12T12:31:10;0.75;;;0.50;;
57856;SDS011;43683;48.650;9.290;2023-04-12T12:33:36;0.80;;;0.60;;
57856;SDS011;43683;48.650;9.290;2023-04-12T12:36:03;0.70;;;0.70;;
57856;SDS011;43683;48.650;9.290;2023-04-12T12:38:38;0.80;;;0.65;;
57856;SDS011;43683;48.650;9.290;2023-04-12T12:41:17;1.42;;;0.63;;
57856;SDS011;43683;48.650;9.290;2023-04-12T12:43:50;0.98;;;0.70;;
57856;SDS011;43683;48.650;9.290;2023-04-12T12:46:16;2.00;;;0.60;;
57856;SDS011;43683;48.650;9.290;2023-04-12T12:48:46;0.70;;;0.70;;
57856;SDS011;43683;48.650;9.290;2023-04-12T12:51:12;2.63;;;0.90;;
57856;SDS011;43683;48.650;9.290;2023-04-12T12:53:41;0.50;;;0.50;;
57856;SDS011;43683;48.650;9.290;2023-04-12T12:56:07;0.70;;;0.70;;
57856;SDS011;43683;48.650;9.290;2023-04-12T12:58:35;0.95;;;0.68;;
57856;SDS011;43683;48.650;9.290;2023-04-12T13:01:01;0.70;;;0.60;;
57856;SDS011;43683;48.650;9.290;2023-04-12T13:03:28;0.93;;;0.77;;
57856;SDS011;43683;48.650;9.290;2023-04-12T13:05:54;0.88;;;0.60;;
57856;SDS011;43683;48.650;9.290;2023-04-12T13:08:20;1.02;;;0.60;;
57856;SDS011;43683;48.650;9.290;2023-04-12T13:10:45;0.90;;;0.90;;
57856;SDS011;43683;48.650;9.290;2023-04-12T13:13:11;0.70;;;0.70;;
57856;SDS011;43683;48.650;9.290;2023-04-12T13:15:37;0.70;;;0.52;;
57856;SDS011;43683;48.650;9.290;2023-04-12T13:18:02;1.35;;;0.80;;
57856;SDS011;43683;48.650;9.290;2023-04-12T13:20:28;1.55;;;0.73;;
57856;SDS011;43683;48.650;9.290;2023-04-12T13:22:53;1.45;;;0.65;;
57856;SDS011;43683;48.650;9.290;2023-04-12T13:25:19;0.70;;;0.68;;
57856;SDS011;43683;48.650;9.290;2023-04-12T13:27:48;2.05;;;0.70;;
57856;SDS011;43683;48.650;9.290;2023-04-12T13:30:15;2.22;;;0.80;;
57856;SDS011;43683;48.650;9.290;2023-04-12T13:32:44;1.38;;;0.90;;
57856;SDS011;43683;48.650;9.290;2023-04-12T13:35:10;1.55;;;0.60;;
57856;SDS011;43683;48.650;9.290;2023-04-12T13:37:36;0.70;;;0.70;;
57856;SDS011;43683;48.650;9.290;2023-04-12T13:40:02;2.55;;;0.68;;
57856;SDS011;43683;48.650;9.290;2023-04-12T13:42:28;0.57;;;0.57;;
57856;SDS011;43683;48.650;9.290;2023-04-12T13:44:53;1.00;;;0.60;;
57856;SDS011;43683;48.650;9.290;2023-04-12T13:47:19;0.60;;;0.60;;
57856;SDS011;43683;48.650;9.290;2023-04-12T13:49:45;0.65;;;0.60;;
57856;SDS011;43683;48.650;9.290;2023-04-12T13:52:11;0.60;;;0.60;;
57856;SDS011;43683;48.650;9.290;2023-04-12T13:54:37;0.60;;;0.60;;
57856;SDS011;43683;48.650;9.290;2023-04-12T13:57:02;1.10;;;0.70;;
57856;SDS011;43683;48.650;9.290;2023-04-12T13:59:28;0.95;;;0.70;;
57856;SDS011;43683;48.650;9.290;2023-04-12T14:01:54;2.42;;;0.70;;
57856;SDS011;43683;48.650;9.290;2023-04-12T14:04:20;2.25;;;0.80;;
57856;SDS011;43683;48.650;9.290;2023-04-12T14:06:46;1.05;;;0.80;;
57856;SDS011;43683;48.650;9.290;2023-04-12T14:09:22;0.60;;;0.57;;
57856;SDS011;43683;48.650;9.290;2023-04-12T14:11:52;0.60;;;0.60;;
57856;SDS011;43683;48.650;9.290;2023-04-12T14:14:20;1.05;;;0.60;;
57856;SDS011;43683;48.650;9.290;2023-04-12T14:16:47;1.85;;;0.75;;
57856;SDS011;43683;48.650;9.290;2023-04-12T14:19:13;0.85;;;0.65;;
57856;SDS011;43683;48.650;9.290;2023-04-12T14:21:39;2.22;;;0.50;;
57856;SDS011;43683;48.650;9.290;2023-04-12T14:24:04;0.73;;;0.60;;
57856;SDS011;43683;48.650;9.290;2023-04-12T14:26:30;0.60;;;0.60;;
57856;SDS011;43683;48.650;9.290;2023-04-12T14:28:56;1.42;;;0.63;;
57856;SDS011;43683;48.650;9.290;2023-04-12T14:31:21;1.25;;;0.60;;
57856;SDS011;43683;48.650;9.290;2023-04-12T14:33:47;2.85;;;0.60;;
57856;SDS011;43683;48.650;9.290;2023-04-12T14:36:12;1.08;;;0.63;;
57856;SDS011;43683;48.650;9.290;2023-04-12T14:38:38;2.00;;;0.68;;
57856;SDS011;43683;48.650;9.290;2023-04-12T14:41:07;0.77;;;0.70;;
57856;SDS011;43683;48.650;9.290;2023-04-12T14:43:34;0.85;;;0.60;;
57856;SDS011;43683;48.650;9.290;2023-04-12T14:46:00;0.68;;;0.63;;
57856;SDS011;43683;48.650;9.290;2023-04-12T14:48:25;0.93;;;0.55;;
57856;SDS011;43683;48.650;9.290;2023-04-12T14:50:51;1.40;;;0.77;;
57856;SDS011;43683;48.650;9.290;2023-04-12T14:53:18;0.73;;;0.73;;
57856;SDS011;43683;48.650;9.290;2023-04-12T14:55:45;0.65;;;0.52;;
57856;SDS011;43683;48.650;9.290;2023-04-12T14:58:10;1.08;;;0.52;;
57856;SDS011;43683;48.650;9.290;2023-04-12T15:00:36;3.47;;;0.80;;
57856;SDS011;43683;48.650;9.290;2023-04-12T15:03:02;1.77;;;0.50;;
57856;SDS011;43683;48.650;9.290;2023-04-12T15:05:29;0.57;;;0.50;;
57856;SDS011;43683;48.650;9.290;2023-04-12T15:07:54;1.67;;;0.80;;
57856;SDS011;43683;48.650;9.290;2023-04-12T15:10:21;0.57;;;0.55;;
57856;SDS011;43683;48.650;9.290;2023-04-12T15:12:47;0.50;;;0.50;;
57856;SDS011;43683;48.650;9.290;2023-04-12T15:15:12;1.30;;;1.20;;